HESC

St Catherine International Airport

Egypt
METAR HESC 201400Z 30011KT CAVOK 30/07 Q1017 NOSIG
Observed Flight Rules
Jul-20 @ 14:00 UTC (47 minutes ago) Visual Flight Rules
Wind Visibility Clouds
300° at 11 knots 10,000+ meters
  • Clear skies
Temperatures Readings
Current 30°C / 86°F
Dewpoint 7°C / 45°F
Humidity 24%
Altimeter 30.03" Hg
Pressure 1017 hPa
Elevation 1332
METAR HESC 201400Z 30011KT CAVOK 30/07 Q1017 NOSIG
Observed Flight Rules
Jul-20 @ 14:00 UTC
(47 minutes ago)
VFR
Wind Visibility
300° at 11 knots 10,000+ meters
Clouds
  • Clear skies
Temperature Dewpoint
30°C / 86°F 7°C / 45°F
Humidity Altimeter Pressure
24% 30.03" Hg 1017 hPa